• Join FlightAware (Why Join?)
  • Login
  • US Flag 
02:56AM EDT


 

Airport Tracker/Info


-or-


 

Live Flight TrackerFlight Track Log ✈ DAL5996 ✈ 25-Apr-2013 ✈ KDFW - KDTW

Flight Track Log - Related Links

Times and Time Zones

All times are in EDT time to prevent confusion due to time zone crossing. See the DAL5996 flight status page for this flight to view local times or setup timezone preferences in your user account.

Time Position Orientation Groundspeed Altitude Reporting Facility
EDT Latitude Longitude Course Direction KTS MPH feet Rate Location/Type
06:57AM 32.9500 -97.0333 64° Northeast 193 222 3,100  Level Dallas / Fort Worth TRACON
06:59AM 33.0333 -97.0333 360° North 251 289 6,600 2,580 Climbing Dallas / Fort Worth TRACON
07:00AM 32.9084 -96.5959 52° Northeast  Level FlightAware Approximate
07:01AM 32.9835 -96.4712 57° Northeast  Level FlightAware Approximate
07:01AM 33.0847 -96.8408 72° East 299 344 12,400  Level Fort Worth Center
07:02AM 33.0532 -96.3417 57° Northeast  Level FlightAware Approximate
07:02AM 33.0839 -96.7117 90° East 345 397 15,200  Level Fort Worth Center
07:03AM 33.1087 -96.2031 64° Northeast  Level FlightAware Approximate
07:03AM 33.0853 -96.5853 89° East 371 427 17,300  Level Fort Worth Center
07:04AM 33.0844 -96.4539 90° East 390 449 19,400 2,160 Climbing Fort Worth Center
07:05AM 33.0917 -96.3150 86° East 402 463 21,700 1,980 Climbing Fort Worth Center
07:06AM 33.1258 -96.1856 72° East 407 468 23,400 1,680 Climbing Fort Worth Center
07:07AM 33.1683 -96.0486 70° East 427 491 25,100 1,440 Climbing Fort Worth Center
07:08AM 33.2106 -95.9064 70° East 440 506 26,300 1,320 Climbing Fort Worth Center
07:09AM 33.2525 -95.7567 71° East 457 526 27,800 1,440 Climbing Fort Worth Center
07:10AM 33.2983 -95.6042 70° East 475 547 29,200 1,140 Climbing Fort Worth Center
07:11AM 33.3361 -95.4667 72° East 475 547 30,100 900 Climbing Fort Worth Center
07:12AM 33.3833 -95.2939 72° East 482 555 31,100 960 Climbing Fort Worth Center
07:13AM 33.4306 -95.1336 71° East 499 574 32,100 1,080 Climbing Fort Worth Center
07:14AM 33.4778 -94.9728 71° East 506 582 33,300 1,020 Climbing Fort Worth Center
07:15AM 33.5244 -94.8122 71° East 506 582 34,200 840 Climbing Fort Worth Center
07:16AM 33.5711 -94.6511 71° East 506 582 35,000 840 Climbing Fort Worth Center
07:17AM 33.6175 -94.4850 71° East 512 589 35,900 720 Climbing Fort Worth Center
07:18AM 33.6639 -94.3264 71° East 512 589 36,500 540 Climbing Fort Worth Center
07:19AM 33.7181 -94.1647 68° East 512 589 37,000 240 Climbing Fort Worth Center
07:20AM 33.7783 -94.0408 60° Northeast 564 649 37,000  Level Memphis Center
07:21AM 33.8558 -93.8892 58° Northeast 550 633 37,000  Level Memphis Center
07:22AM 33.9308 -93.7344 60° Northeast 536 617 37,000  Level Memphis Center
07:23AM 34.0058 -93.5819 59° Northeast 530 610 37,000  Level Memphis Center
07:24AM 34.0828 -93.4269 59° Northeast 530 610 37,000  Level Memphis Center
07:25AM 34.1575 -93.2714 60° Northeast 530 610 37,000  Level Memphis Center
07:26AM 34.2319 -93.1156 60° Northeast 530 610 37,000  Level Memphis Center
07:27AM 34.3064 -92.9622 60° Northeast 524 603 37,000  Level Memphis Center
07:28AM 34.3783 -92.8058 61° Northeast 524 603 37,000  Level Memphis Center
07:29AM 34.4564 -92.6467 59° Northeast 531 611 37,000  Level Memphis Center
07:30AM 34.5303 -92.4925 60° Northeast 531 611 37,000  Level Memphis Center
07:31AM 34.6036 -92.3353 60° Northeast 531 611 37,000  Level Memphis Center
07:32AM 34.6811 -92.1831 58° Northeast 526 605 37,000  Level Memphis Center
07:33AM 34.7789 -92.0511 48° Northeast 526 605 37,000  Level Memphis Center
07:34AM 34.8808 -91.9217 46° Northeast 516 594 37,000  Level Memphis Center
07:35AM 34.9783 -91.7942 47° Northeast 516 594 37,000  Level Memphis Center
07:36AM 35.0819 -91.6639 46° Northeast 516 594 37,000  Level Memphis Center
07:37AM 35.1811 -91.5358 47° Northeast 516 594 37,000  Level Memphis Center
07:38AM 35.2806 -91.4050 47° Northeast 516 594 37,000  Level Memphis Center
07:39AM 35.3817 -91.2739 47° Northeast 516 594 37,000  Level Memphis Center
07:40AM 35.4722 -91.1575 46° Northeast 516 594 37,000  Level Memphis Center
07:41AM 35.5731 -91.0258 47° Northeast 521 600 37,000  Level Memphis Center
07:42AM 35.6842 -90.8808 47° Northeast 521 600 37,000  Level Memphis Center
07:43AM 35.7786 -90.7486 49° Northeast 516 594 37,000  Level Memphis Center
07:44AM 35.8769 -90.6158 48° Northeast 516 594 37,000  Level Memphis Center
07:45AM 35.9792 -90.4800 47° Northeast 516 594 37,000  Level Memphis Center
07:46AM 36.0794 -90.3467 47° Northeast 521 600 37,000  Level Memphis Center
07:47AM 36.1772 -90.2181 47° Northeast 521 600 37,000  Level Memphis Center
07:48AM 36.2750 -90.0842 48° Northeast 516 594 37,000  Level Memphis Center
07:49AM 36.3728 -89.9522 47° Northeast 516 594 37,000  Level Memphis Center
07:50AM 36.4700 -89.8228 47° Northeast 516 594 37,000  Level Memphis Center
07:51AM 36.5675 -89.6903 47° Northeast 516 594 37,000  Level Memphis Center
07:52AM 36.6647 -89.5550 48° Northeast 516 594 37,000  Level Memphis Center
07:53AM 36.7658 -89.4194 47° Northeast 516 594 37,000  Level Memphis Center
07:54AM 36.8522 -89.2964 49° Northeast 516 594 37,000  Level Memphis Center
07:55AM 36.9511 -89.1603 48° Northeast 516 594 37,000  Level Memphis Center
07:56AM 37.0497 -89.0236 48° Northeast 516 594 37,000  Level Memphis Center
07:57AM 37.1481 -88.8892 47° Northeast 516 594 37,000  Level Memphis Center
07:58AM 37.2464 -88.7467 49° Northeast 516 594 37,000  Level Memphis Center
07:59AM 37.3467 -88.6089 48° Northeast 522 601 37,000  Level Memphis Center
08:01AM 37.5664 -88.2836 50° Northeast 543 625 37,000  Level Indianapolis Center
08:02AM 37.6797 -88.1206 49° Northeast 548 631 37,000  Level Indianapolis Center
08:03AM 37.7719 -88.0025 45° Northeast 542 624 37,000  Level Indianapolis Center
08:04AM 37.9192 -87.8858 32° Northeast 516 594 37,000  Level Indianapolis Center
08:05AM 38.0394 -87.7914 32° Northeast 507 583 37,000  Level Indianapolis Center
08:06AM 38.1606 -87.6964 32° Northeast 507 583 37,000  Level Indianapolis Center
08:07AM 38.2794 -87.6042 31° Northeast 497 572 37,000  Level Indianapolis Center
08:08AM 38.3992 -87.5100 32° Northeast 497 572 37,000  Level Indianapolis Center
08:09AM 38.5200 -87.4144 32° Northeast 500 575 37,000  Level Indianapolis Center
08:10AM 38.6417 -87.3183 32° Northeast 504 580 37,000  Level Indianapolis Center
08:11AM 38.7611 -87.2222 32° Northeast 501 577 37,000  Level Indianapolis Center
08:12AM 38.8803 -87.1275 32° Northeast 499 574 37,000  Level Indianapolis Center
08:13AM 38.9997 -87.0317 32° Northeast 502 578 37,000 -360 Level Indianapolis Center
08:15AM 39.1342 -86.9236 32° Northeast 498 573 36,300 -540 Descending Indianapolis Center
08:16AM 39.2547 -86.8272 32° Northeast 503 579 36,000 -840 Descending Indianapolis Center
08:17AM 39.3750 -86.7286 32° Northeast 507 583 34,700 -1,440 Descending Indianapolis Center
08:18AM 39.4956 -86.6300 32° Northeast 509 586 33,100 -1,560 Descending Indianapolis Center
08:19AM 39.6189 -86.5294 32° Northeast 517 595 31,600 -1,080 Descending Indianapolis Center
08:20AM 39.7411 -86.4422 29° Northeast 495 570 31,000 -300 Descending Indianapolis Center
08:21AM 39.8703 -86.3967 15° North 466 536 31,000  Level Indianapolis Center
08:22AM 39.9961 -86.3519 15° North 461 531 31,000  Level Indianapolis Center
08:22AM 40.0375 -86.3225 29° Northeast 481 554 31,000  Level Chicago Center
08:23AM 40.1433 -86.2019 41° Northeast 499 574 31,000 -540 Level Chicago Center
08:24AM 40.2481 -86.0767 42° Northeast 504 580 30,000 -1,500 Descending Chicago Center
08:25AM 40.3461 -85.9586 43° Northeast 478 550 28,000 -1,500 Descending Chicago Center
08:26AM 40.4369 -85.8489 43° Northeast 446 513 26,900 -900 Descending Chicago Center
08:27AM 40.5350 -85.7333 42° Northeast 468 539 26,200 -780 Descending Chicago Center
08:28AM 40.6494 -85.5922 43° Northeast 478 550 25,400 -720 Descending Chicago Center
08:29AM 40.7342 -85.4889 43° Northeast 471 542 24,800 -600 Descending Chicago Center
08:30AM 40.8283 -85.3756 42° Northeast 463 533 24,200 -1,020 Descending Chicago Center
08:31AM 40.9400 -85.2356 43° Northeast 462 532 22,700 -1,620 Descending Chicago Center
08:32AM 41.0353 -85.1278 40° Northeast 457 526 20,900 -1,800 Descending Chicago Center
08:33AM 41.1281 -85.0289 39° Northeast 439 505 19,100 -960 Descending Chicago Center
08:34AM 41.2197 -84.9294 39° Northeast 431 496 19,000 -60 Descending Chicago Center
08:35AM 41.3131 -84.8297 39° Northeast 434 499 19,000  Level Chicago Center
08:36AM 41.4256 -84.7086 39° Northeast 437 503 19,000  Level Chicago Center
08:37AM 41.5206 -84.6061 39° Northeast 441 507 19,000 -300 Level Chicago Center
08:39AM 41.6067 -84.5100 40° Northeast 411 473 18,500 -1,260 Descending Chicago Center
08:39AM 41.6858 -84.4011 46° Northeast 402 463 16,600 -1,920 Descending Cleveland Center
08:40AM 41.7381 -84.2678 62° Northeast 394 453 14,800 -1,680 Descending Cleveland Center
08:42AM 41.7883 -84.1314 64° Northeast 377 434 13,100 -1,680 Descending Cleveland Center
08:42AM 41.8017 -84.1042 57° Northeast 382 440 12,600 -1,140 Descending Cleveland Center
08:43AM 41.8461 -84.0147 56° Northeast 377 434 12,000 -360 Descending Cleveland Center
08:44AM 41.9178 -83.9181 45° Northeast 367 422 12,000  Level Cleveland Center
08:45AM 41.9892 -83.8211 45° Northeast 367 422 12,000  Level Cleveland Center
08:46AM 42.0631 -83.7214 45° Northeast 367 422 12,000  Level Cleveland Center
08:47AM 42.1364 -83.6242 44° Northeast 367 422 12,000  Level Cleveland Center
08:48AM 42.1883 -83.5511 46° Northeast 338 389 12,000 -600 Level Cleveland Center
08:49AM 42.2672 -83.4844 32° Northeast 253 291 10,800 -1,140 Descending Cleveland Center
08:50AM 42.3267 -83.4394 29° Northeast 246 283 9,600 -1,380 Descending Cleveland Center
08:51AM 42.3883 -83.3972 27° Northeast 242 278 8,000 -1,500 Descending Cleveland Center
08:52AM 42.4475 -83.3578 26° Northeast 237 273 6,600 -1,500 Descending Cleveland Center
08:53AM 42.4906 -83.2978 46° Northeast 229 264 5,000 -1,320 Descending Cleveland Center
08:54AM 42.4692 -83.2375 116° Southeast 164 189 4,000 -540 Descending Cleveland Center
08:55AM 42.4275 -83.2303 173° South 168 193 4,000  Level Cleveland Center